sensor_id;sensor_type;location;lat;lon;timestamp;pressure;altitude;pressure_sealevel;temperature;humidity
31044;BME280;17710;52.520;13.352;2023-05-25T00:02:21;101973.88;;;17.02;51.83
31044;BME280;17710;52.520;13.352;2023-05-25T00:04:48;101975.59;;;16.83;51.79
31044;BME280;17710;52.520;13.352;2023-05-25T00:07:16;101979.13;;;16.84;51.50
31044;BME280;17710;52.520;13.352;2023-05-25T00:09:43;101980.09;;;16.81;51.56
31044;BME280;17710;52.520;13.352;2023-05-25T00:12:10;101978.41;;;16.80;51.86
31044;BME280;17710;52.520;13.352;2023-05-25T00:14:37;101980.81;;;16.64;52.18
31044;BME280;17710;52.520;13.352;2023-05-25T00:17:04;101975.59;;;16.61;52.50
31044;BME280;17710;52.520;13.352;2023-05-25T00:19:35;101979.13;;;16.62;52.53
31044;BME280;17710;52.520;13.352;2023-05-25T00:22:02;101975.44;;;16.66;52.15
31044;BME280;17710;52.520;13.352;2023-05-25T00:24:29;101978.41;;;16.80;52.10
31044;BME280;17710;52.520;13.352;2023-05-25T00:26:55;101972.81;;;16.86;51.67
31044;BME280;17710;52.520;13.352;2023-05-25T00:29:22;101977.88;;;16.92;51.29
31044;BME280;17710;52.520;13.352;2023-05-25T00:31:50;101980.09;;;17.03;51.17
31044;BME280;17710;52.520;13.352;2023-05-25T00:34:16;101978.81;;;17.11;50.75
31044;BME280;17710;52.520;13.352;2023-05-25T00:36:44;101974.88;;;17.20;50.53
31044;BME280;17710;52.520;13.352;2023-05-25T00:39:12;101976.00;;;17.14;50.66
31044;BME280;17710;52.520;13.352;2023-05-25T00:41:39;101970.88;;;17.10;50.83
31044;BME280;17710;52.520;13.352;2023-05-25T00:44:06;101975.13;;;17.14;50.77
31044;BME280;17710;52.520;13.352;2023-05-25T00:46:33;101972.94;;;17.24;50.27
31044;BME280;17710;52.520;13.352;2023-05-25T00:49:00;101972.81;;;17.06;51.11
31044;BME280;17710;52.520;13.352;2023-05-25T00:51:27;101975.28;;;16.91;51.29
31044;BME280;17710;52.520;13.352;2023-05-25T00:53:58;101977.94;;;16.91;51.56
31044;BME280;17710;52.520;13.352;2023-05-25T00:56:28;101974.13;;;16.96;51.57
31044;BME280;17710;52.520;13.352;2023-05-25T00:58:56;101973.69;;;16.87;51.50
31044;BME280;17710;52.520;13.352;2023-05-25T01:01:24;101970.56;;;16.76;51.86
31044;BME280;17710;52.520;13.352;2023-05-25T01:03:53;101965.16;;;16.77;51.95
31044;BME280;17710;52.520;13.352;2023-05-25T01:06:22;101966.97;;;16.77;52.06
31044;BME280;17710;52.520;13.352;2023-05-25T01:08:53;101969.28;;;16.64;52.57
31044;BME280;17710;52.520;13.352;2023-05-25T01:11:25;101970.88;;;16.68;52.24
31044;BME280;17710;52.520;13.352;2023-05-25T01:13:53;101969.22;;;16.65;52.25
31044;BME280;17710;52.520;13.352;2023-05-25T01:16:20;101972.28;;;16.55;52.64
31044;BME280;17710;52.520;13.352;2023-05-25T01:18:46;101974.91;;;16.56;52.64
31044;BME280;17710;52.520;13.352;2023-05-25T01:21:19;101982.84;;;16.58;52.22
31044;BME280;17710;52.520;13.352;2023-05-25T01:23:51;101972.69;;;16.67;52.47
31044;BME280;17710;52.520;13.352;2023-05-25T01:26:19;101981.47;;;16.48;52.77
31044;BME280;17710;52.520;13.352;2023-05-25T01:28:51;101976.88;;;16.51;52.87
31044;BME280;17710;52.520;13.352;2023-05-25T01:31:20;101982.78;;;16.38;52.75
31044;BME280;17710;52.520;13.352;2023-05-25T01:33:48;101982.34;;;16.26;53.34
31044;BME280;17710;52.520;13.352;2023-05-25T01:36:15;101976.25;;;16.45;52.86
31044;BME280;17710;52.520;13.352;2023-05-25T01:38:43;101983.06;;;16.30;53.71
31044;BME280;17710;52.520;13.352;2023-05-25T01:41:09;101987.59;;;16.28;53.46
31044;BME280;17710;52.520;13.352;2023-05-25T01:43:36;101983.13;;;16.28;53.23
31044;BME280;17710;52.520;13.352;2023-05-25T01:46:08;101982.00;;;16.12;54.06
31044;BME280;17710;52.520;13.352;2023-05-25T01:48:42;101984.19;;;16.24;53.45
31044;BME280;17710;52.520;13.352;2023-05-25T01:51:16;101987.69;;;16.26;53.52
31044;BME280;17710;52.520;13.352;2023-05-25T01:53:51;101975.38;;;16.22;53.49
31044;BME280;17710;52.520;13.352;2023-05-25T01:56:20;101984.50;;;16.17;53.79
31044;BME280;17710;52.520;13.352;2023-05-25T01:58:48;101985.59;;;16.11;53.63
31044;BME280;17710;52.520;13.352;2023-05-25T02:01:16;101990.34;;;16.03;54.13
31044;BME280;17710;52.520;13.352;2023-05-25T02:03:45;101980.94;;;16.16;53.61
31044;BME280;17710;52.520;13.352;2023-05-25T02:06:12;101979.59;;;16.28;53.39
31044;BME280;17710;52.520;13.352;2023-05-25T02:08:41;101978.19;;;16.19;53.54
31044;BME280;17710;52.520;13.352;2023-05-25T02:11:11;101973.34;;;16.07;53.81
31044;BME280;17710;52.520;13.352;2023-05-25T02:13:38;101974.41;;;16.25;53.24
31044;BME280;17710;52.520;13.352;2023-05-25T02:16:05;101973.88;;;16.15;53.64
31044;BME280;17710;52.520;13.352;2023-05-25T02:18:31;101964.31;;;16.10;54.00
31044;BME280;17710;52.520;13.352;2023-05-25T02:20:58;101975.28;;;16.02;54.18
31044;BME280;17710;52.520;13.352;2023-05-25T02:23:24;101976.97;;;16.05;54.63
31044;BME280;17710;52.520;13.352;2023-05-25T02:25:51;101980.13;;;15.92;54.47
31044;BME280;17710;52.520;13.352;2023-05-25T02:28:18;101981.78;;;15.95;54.56
31044;BME280;17710;52.520;13.352;2023-05-25T02:30:45;101987.00;;;15.98;54.58
31044;BME280;17710;52.520;13.352;2023-05-25T02:33:11;101996.69;;;16.01;54.47
31044;BME280;17710;52.520;13.352;2023-05-25T02:35:38;101990.31;;;16.05;54.43
31044;BME280;17710;52.520;13.352;2023-05-25T02:38:05;101992.09;;;16.04;54.63
31044;BME280;17710;52.520;13.352;2023-05-25T02:40:32;101991.00;;;16.10;54.27
31044;BME280;17710;52.520;13.352;2023-05-25T02:42:58;101994.75;;;16.04;54.68
31044;BME280;17710;52.520;13.352;2023-05-25T02:45:26;101989.72;;;15.97;55.39
31044;BME280;17710;52.520;13.352;2023-05-25T02:47:52;101995.59;;;16.06;54.91
31044;BME280;17710;52.520;13.352;2023-05-25T02:50:19;101988.63;;;16.02;55.18
31044;BME280;17710;52.520;13.352;2023-05-25T02:52:45;101983.38;;;16.01;55.14
31044;BME280;17710;52.520;13.352;2023-05-25T02:55:12;101990.25;;;16.06;54.88
31044;BME280;17710;52.520;13.352;2023-05-25T02:57:38;101983.63;;;16.16;54.67
31044;BME280;17710;52.520;13.352;2023-05-25T03:00:06;101981.91;;;15.92;55.25
31044;BME280;17710;52.520;13.352;2023-05-25T03:02:34;101982.94;;;16.11;54.71
31044;BME280;17710;52.520;13.352;2023-05-25T03:05:00;101988.94;;;16.16;54.84
31044;BME280;17710;52.520;13.352;2023-05-25T03:07:26;101975.75;;;15.90;55.81
31044;BME280;17710;52.520;13.352;2023-05-25T03:09:53;101984.44;;;15.95;55.68
31044;BME280;17710;52.520;13.352;2023-05-25T03:12:20;101989.78;;;15.72;56.13
31044;BME280;17710;52.520;13.352;2023-05-25T03:14:46;101986.84;;;15.79;56.34
31044;BME280;17710;52.520;13.352;2023-05-25T03:17:12;101988.78;;;15.98;55.32
31044;BME280;17710;52.520;13.352;2023-05-25T03:19:40;101987.41;;;16.11;55.07
31044;BME280;17710;52.520;13.352;2023-05-25T03:22:08;101991.47;;;15.98;55.26
31044;BME280;17710;52.520;13.352;2023-05-25T03:24:34;101988.16;;;16.14;54.74
31044;BME280;17710;52.520;13.352;2023-05-25T03:27:05;101992.13;;;16.48;53.83
31044;BME280;17710;52.520;13.352;2023-05-25T03:29:32;101997.34;;;16.51;53.48
31044;BME280;17710;52.520;13.352;2023-05-25T03:31:58;101999.72;;;16.37;53.89
31044;BME280;17710;52.520;13.352;2023-05-25T03:34:24;102007.41;;;16.44;53.74
31044;BME280;17710;52.520;13.352;2023-05-25T03:36:56;102003.13;;;16.40;53.75
31044;BME280;17710;52.520;13.352;2023-05-25T03:39:22;101998.34;;;16.03;54.79
31044;BME280;17710;52.520;13.352;2023-05-25T03:41:48;102006.75;;;16.16;54.64
31044;BME280;17710;52.520;13.352;2023-05-25T03:44:15;102011.19;;;16.39;54.13
31044;BME280;17710;52.520;13.352;2023-05-25T03:46:41;102005.53;;;16.24;54.45
31044;BME280;17710;52.520;13.352;2023-05-25T03:49:08;101999.59;;;16.40;54.36
31044;BME280;17710;52.520;13.352;2023-05-25T03:51:37;102004.50;;;16.50;54.11
31044;BME280;17710;52.520;13.352;2023-05-25T03:54:05;102003.44;;;16.32;54.79
31044;BME280;17710;52.520;13.352;2023-05-25T03:56:32;102006.59;;;16.42;54.67
31044;BME280;17710;52.520;13.352;2023-05-25T03:58:58;102008.72;;;16.56;54.96
31044;BME280;17710;52.520;13.352;2023-05-25T04:01:25;102022.00;;;16.57;54.78
31044;BME280;17710;52.520;13.352;2023-05-25T04:03:54;102019.63;;;16.50;55.59
31044;BME280;17710;52.520;13.352;2023-05-25T04:06:20;102018.25;;;16.63;54.72
31044;BME280;17710;52.520;13.352;2023-05-25T04:08:49;102019.69;;;16.71;54.39
31044;BME280;17710;52.520;13.352;2023-05-25T04:11:17;102021.84;;;16.84;54.27
31044;BME280;17710;52.520;13.352;2023-05-25T04:13:43;102024.41;;;17.07;53.48
31044;BME280;17710;52.520;13.352;2023-05-25T04:16:10;102021.50;;;17.13;53.31
31044;BME280;17710;52.520;13.352;2023-05-25T04:18:37;102026.63;;;17.18;52.78
31044;BME280;17710;52.520;13.352;2023-05-25T04:21:04;102028.63;;;17.33;51.96
31044;BME280;17710;52.520;13.352;2023-05-25T04:23:30;102024.38;;;17.29;52.06
31044;BME280;17710;52.520;13.352;2023-05-25T04:25:58;102032.66;;;17.01;52.90
31044;BME280;17710;52.520;13.352;2023-05-25T04:28:26;102031.03;;;16.98;53.04
31044;BME280;17710;52.520;13.352;2023-05-25T04:30:53;102034.19;;;16.86;53.31
31044;BME280;17710;52.520;13.352;2023-05-25T04:33:21;102039.19;;;17.36;52.22
31044;BME280;17710;52.520;13.352;2023-05-25T04:35:47;102038.09;;;17.60;51.56
31044;BME280;17710;52.520;13.352;2023-05-25T04:38:14;102052.81;;;17.50;51.56
31044;BME280;17710;52.520;13.352;2023-05-25T04:40:42;102033.97;;;17.53;51.80
31044;BME280;17710;52.520;13.352;2023-05-25T04:43:10;102047.88;;;17.41;52.14
31044;BME280;17710;52.520;13.352;2023-05-25T04:45:39;102051.47;;;17.40;52.48
31044;BME280;17710;52.520;13.352;2023-05-25T04:48:05;102044.50;;;17.16;52.96
31044;BME280;17710;52.520;13.352;2023-05-25T04:50:32;102047.72;;;17.03;53.46
31044;BME280;17710;52.520;13.352;2023-05-25T04:52:58;102047.75;;;17.24;53.04
31044;BME280;17710;52.520;13.352;2023-05-25T04:55:24;102046.47;;;17.12;53.30
31044;BME280;17710;52.520;13.352;2023-05-25T04:57:51;102046.66;;;17.28;53.14
31044;BME280;17710;52.520;13.352;2023-05-25T05:00:19;102046.53;;;17.31;53.17
31044;BME280;17710;52.520;13.352;2023-05-25T05:02:47;102034.84;;;17.53;52.63
31044;BME280;17710;52.520;13.352;2023-05-25T05:05:14;102034.25;;;18.25;51.34
31044;BME280;17710;52.520;13.352;2023-05-25T05:07:40;102028.59;;;18.87;49.12
31044;BME280;17710;52.520;13.352;2023-05-25T05:10:07;102028.78;;;20.97;45.13
31044;BME280;17710;52.520;13.352;2023-05-25T05:12:34;102027.91;;;21.57;42.58
31044;BME280;17710;52.520;13.352;2023-05-25T05:15:00;102033.59;;;21.80;41.69
31044;BME280;17710;52.520;13.352;2023-05-25T05:17:27;102036.06;;;22.40;40.12
31044;BME280;17710;52.520;13.352;2023-05-25T05:19:56;102030.72;;;21.83;40.87
31044;BME280;17710;52.520;13.352;2023-05-25T05:22:22;102042.03;;;21.46;41.70
31044;BME280;17710;52.520;13.352;2023-05-25T05:24:49;102040.41;;;20.82;42.81
31044;BME280;17710;52.520;13.352;2023-05-25T05:27:15;102044.63;;;20.08;45.12
31044;BME280;17710;52.520;13.352;2023-05-25T05:29:42;102053.63;;;19.74;46.46
31044;BME280;17710;52.520;13.352;2023-05-25T05:32:08;102053.75;;;19.02;48.50
31044;BME280;17710;52.520;13.352;2023-05-25T05:34:35;102050.59;;;19.11;48.49
31044;BME280;17710;52.520;13.352;2023-05-25T05:37:03;102058.56;;;19.13;48.79
31044;BME280;17710;52.520;13.352;2023-05-25T05:39:29;102063.44;;;19.39;48.03
31044;BME280;17710;52.520;13.352;2023-05-25T05:41:56;102063.03;;;19.12;48.59
31044;BME280;17710;52.520;13.352;2023-05-25T05:44:23;102064.19;;;19.60;47.92
31044;BME280;17710;52.520;13.352;2023-05-25T05:46:49;102063.28;;;19.25;48.34
31044;BME280;17710;52.520;13.352;2023-05-25T05:49:15;102069.44;;;19.27;48.63
31044;BME280;17710;52.520;13.352;2023-05-25T05:51:42;102065.44;;;19.35;48.41
31044;BME280;17710;52.520;13.352;2023-05-25T05:54:10;102065.34;;;19.37;48.13
31044;BME280;17710;52.520;13.352;2023-05-25T05:56:36;102069.31;;;19.97;47.01
31044;BME280;17710;52.520;13.352;2023-05-25T05:59:02;102065.47;;;20.51;45.61
31044;BME280;17710;52.520;13.352;2023-05-25T06:01:29;102074.56;;;20.33;45.79
31044;BME280;17710;52.520;13.352;2023-05-25T06:03:56;102069.03;;;19.86;47.13
31044;BME280;17710;52.520;13.352;2023-05-25T06:06:22;102072.53;;;19.88;47.21
31044;BME280;17710;52.520;13.352;2023-05-25T06:08:49;102074.06;;;19.92;46.73
31044;BME280;17710;52.520;13.352;2023-05-25T06:11:16;102084.00;;;20.07;46.54
31044;BME280;17710;52.520;13.352;2023-05-25T06:13:43;102078.22;;;19.82;47.14
31044;BME280;17710;52.520;13.352;2023-05-25T06:16:09;102082.19;;;19.90;47.15
31044;BME280;17710;52.520;13.352;2023-05-25T06:18:36;102083.94;;;20.24;46.19
31044;BME280;17710;52.520;13.352;2023-05-25T06:21:03;102084.97;;;20.71;45.13
31044;BME280;17710;52.520;13.352;2023-05-25T06:23:29;102090.25;;;20.72;44.83
31044;BME280;17710;52.520;13.352;2023-05-25T06:25:56;102082.88;;;20.91;44.30
31044;BME280;17710;52.520;13.352;2023-05-25T06:28:24;102083.88;;;21.04;44.25
31044;BME280;17710;52.520;13.352;2023-05-25T06:30:50;102085.06;;;21.15;43.65
31044;BME280;17710;52.520;13.352;2023-05-25T06:33:17;102087.88;;;21.13;43.78
31044;BME280;17710;52.520;13.352;2023-05-25T06:35:43;102087.34;;;21.22;43.50
31044;BME280;17710;52.520;13.352;2023-05-25T06:38:10;102083.72;;;21.23;43.72
31044;BME280;17710;52.520;13.352;2023-05-25T06:40:37;102090.25;;;21.63;42.85
31044;BME280;17710;52.520;13.352;2023-05-25T06:43:03;102085.09;;;21.74;42.32
31044;BME280;17710;52.520;13.352;2023-05-25T06:45:31;102089.94;;;22.26;41.46
31044;BME280;17710;52.520;13.352;2023-05-25T06:47:58;102095.94;;;22.31;40.84
31044;BME280;17710;52.520;13.352;2023-05-25T06:50:24;102093.75;;;22.64;40.36
31044;BME280;17710;52.520;13.352;2023-05-25T06:52:51;102093.25;;;22.72;40.03
31044;BME280;17710;52.520;13.352;2023-05-25T06:55:17;102080.00;;;23.10;39.13
31044;BME280;17710;52.520;13.352;2023-05-25T06:57:44;102087.56;;;23.30;38.52
31044;BME280;17710;52.520;13.352;2023-05-25T07:00:11;102088.88;;;23.37;38.01
31044;BME280;17710;52.520;13.352;2023-05-25T07:02:39;102094.59;;;23.72;37.69
31044;BME280;17710;52.520;13.352;2023-05-25T07:05:06;102091.97;;;23.58;37.98
31044;BME280;17710;52.520;13.352;2023-05-25T07:07:33;102090.34;;;23.16;38.85
31044;BME280;17710;52.520;13.352;2023-05-25T07:10:01;102081.69;;;23.11;38.92
31044;BME280;17710;52.520;13.352;2023-05-25T07:12:28;102086.75;;;23.03;38.10
31044;BME280;17710;52.520;13.352;2023-05-25T07:14:56;102088.94;;;22.84;38.51
31044;BME280;17710;52.520;13.352;2023-05-25T07:17:22;102092.31;;;22.73;39.19
31044;BME280;17710;52.520;13.352;2023-05-25T07:19:50;102099.34;;;22.61;38.23
31044;BME280;17710;52.520;13.352;2023-05-25T07:22:16;102085.25;;;22.85;38.01
31044;BME280;17710;52.520;13.352;2023-05-25T07:24:43;102092.00;;;22.78;38.10
31044;BME280;17710;52.520;13.352;2023-05-25T07:27:10;102091.88;;;23.20;36.46
31044;BME280;17710;52.520;13.352;2023-05-25T07:29:37;102091.47;;;23.39;36.17
31044;BME280;17710;52.520;13.352;2023-05-25T07:32:03;102090.69;;;23.64;35.43
31044;BME280;17710;52.520;13.352;2023-05-25T07:34:30;102090.53;;;23.13;35.17
31044;BME280;17710;52.520;13.352;2023-05-25T07:36:58;102090.66;;;23.51;35.21
31044;BME280;17710;52.520;13.352;2023-05-25T07:39:24;102101.38;;;23.53;34.02
31044;BME280;17710;52.520;13.352;2023-05-25T07:41:51;102096.97;;;23.90;33.64
31044;BME280;17710;52.520;13.352;2023-05-25T07:44:17;102102.78;;;23.71;33.90
31044;BME280;17710;52.520;13.352;2023-05-25T07:46:44;102104.84;;;23.67;34.01
31044;BME280;17710;52.520;13.352;2023-05-25T07:49:10;102104.09;;;24.16;33.58
31044;BME280;17710;52.520;13.352;2023-05-25T07:51:40;102105.81;;;24.42;33.44
31044;BME280;17710;52.520;13.352;2023-05-25T07:54:08;102108.00;;;24.25;33.16
31044;BME280;17710;52.520;13.352;2023-05-25T07:56:34;102101.97;;;23.96;33.60
31044;BME280;17710;52.520;13.352;2023-05-25T07:59:01;102111.03;;;24.33;32.84
31044;BME280;17710;52.520;13.352;2023-05-25T08:01:27;102109.94;;;24.35;32.48
31044;BME280;17710;52.520;13.352;2023-05-25T08:03:54;102114.47;;;24.09;32.61
31044;BME280;17710;52.520;13.352;2023-05-25T08:06:20;102116.19;;;23.85;33.73
31044;BME280;17710;52.520;13.352;2023-05-25T08:08:47;102111.47;;;24.01;33.20
31044;BME280;17710;52.520;13.352;2023-05-25T08:11:15;102121.28;;;24.53;32.33
31044;BME280;17710;52.520;13.352;2023-05-25T08:13:42;102111.44;;;24.52;31.67
31044;BME280;17710;52.520;13.352;2023-05-25T08:16:08;102115.38;;;24.72;32.31
31044;BME280;17710;52.520;13.352;2023-05-25T08:18:35;102116.13;;;24.25;32.40
31044;BME280;17710;52.520;13.352;2023-05-25T08:21:02;102114.78;;;24.17;32.42
31044;BME280;17710;52.520;13.352;2023-05-25T08:23:28;102117.31;;;24.08;33.15
31044;BME280;17710;52.520;13.352;2023-05-25T08:25:55;102111.56;;;24.00;32.96
31044;BME280;17710;52.520;13.352;2023-05-25T08:28:24;102115.13;;;24.00;33.24
31044;BME280;17710;52.520;13.352;2023-05-25T08:30:50;102110.16;;;23.94;33.36
31044;BME280;17710;52.520;13.352;2023-05-25T08:33:18;102108.88;;;24.25;32.72
31044;BME280;17710;52.520;13.352;2023-05-25T08:35:44;102115.91;;;24.02;32.82
31044;BME280;17710;52.520;13.352;2023-05-25T08:38:12;102112.88;;;23.81;32.93
31044;BME280;17710;52.520;13.352;2023-05-25T08:40:40;102114.44;;;23.59;32.79
31044;BME280;17710;52.520;13.352;2023-05-25T08:43:07;102117.50;;;23.40;33.59
31044;BME280;17710;52.520;13.352;2023-05-25T08:45:35;102107.63;;;23.26;34.01
31044;BME280;17710;52.520;13.352;2023-05-25T08:48:05;102107.28;;;23.18;34.38
31044;BME280;17710;52.520;13.352;2023-05-25T08:50:37;102109.31;;;23.41;34.53
31044;BME280;17710;52.520;13.352;2023-05-25T08:53:05;102109.59;;;23.64;33.93
31044;BME280;17710;52.520;13.352;2023-05-25T08:55:35;102110.06;;;24.08;32.75
31044;BME280;17710;52.520;13.352;2023-05-25T08:58:08;102113.81;;;24.18;33.05
31044;BME280;17710;52.520;13.352;2023-05-25T09:00:41;102117.75;;;24.27;32.74
31044;BME280;17710;52.520;13.352;2023-05-25T09:03:11;102120.53;;;23.88;32.47
31044;BME280;17710;52.520;13.352;2023-05-25T09:08:07;102120.31;;;24.03;31.89
31044;BME280;17710;52.520;13.352;2023-05-25T09:10:34;102122.25;;;23.76;32.10
31044;BME280;17710;52.520;13.352;2023-05-25T09:13:01;102111.47;;;24.01;32.05
31044;BME280;17710;52.520;13.352;2023-05-25T09:15:28;102114.50;;;24.35;31.38
31044;BME280;17710;52.520;13.352;2023-05-25T09:17:56;102124.72;;;24.17;31.97
31044;BME280;17710;52.520;13.352;2023-05-25T09:20:23;102127.00;;;23.98;32.28
31044;BME280;17710;52.520;13.352;2023-05-25T09:22:56;102118.66;;;23.63;32.15
31044;BME280;17710;52.520;13.352;2023-05-25T09:25:22;102125.19;;;24.23;31.43
31044;BME280;17710;52.520;13.352;2023-05-25T09:27:50;102129.72;;;24.36;30.60
31044;BME280;17710;52.520;13.352;2023-05-25T09:30:17;102125.72;;;24.54;30.99
31044;BME280;17710;52.520;13.352;2023-05-25T09:32:43;102127.34;;;24.44;31.37
31044;BME280;17710;52.520;13.352;2023-05-25T09:35:14;102129.16;;;23.93;32.56
31044;BME280;17710;52.520;13.352;2023-05-25T09:37:41;102120.94;;;23.69;33.24
31044;BME280;17710;52.520;13.352;2023-05-25T09:40:14;102120.81;;;23.83;33.20
31044;BME280;17710;52.520;13.352;2023-05-25T09:42:41;102124.19;;;23.99;33.31
31044;BME280;17710;52.520;13.352;2023-05-25T09:45:07;102129.63;;;24.25;32.66
31044;BME280;17710;52.520;13.352;2023-05-25T09:47:35;102128.75;;;24.24;32.35
31044;BME280;17710;52.520;13.352;2023-05-25T09:50:02;102129.41;;;24.15;31.93
31044;BME280;17710;52.520;13.352;2023-05-25T09:52:30;102136.94;;;23.97;32.27
31044;BME280;17710;52.520;13.352;2023-05-25T09:54:57;102136.06;;;23.44;32.89
31044;BME280;17710;52.520;13.352;2023-05-25T09:57:23;102127.38;;;23.54;32.30
31044;BME280;17710;52.520;13.352;2023-05-25T09:59:52;102136.75;;;23.48;32.58
31044;BME280;17710;52.520;13.352;2023-05-25T10:02:18;102133.50;;;23.95;32.07
31044;BME280;17710;52.520;13.352;2023-05-25T10:04:44;102128.84;;;24.22;31.54
31044;BME280;17710;52.520;13.352;2023-05-25T10:07:12;102131.97;;;24.42;31.48
31044;BME280;17710;52.520;13.352;2023-05-25T10:09:42;102135.63;;;24.03;32.00
31044;BME280;17710;52.520;13.352;2023-05-25T10:12:14;102129.41;;;24.02;31.90
31044;BME280;17710;52.520;13.352;2023-05-25T10:14:42;102138.22;;;23.79;32.66
31044;BME280;17710;52.520;13.352;2023-05-25T10:17:10;102134.75;;;23.37;33.57
31044;BME280;17710;52.520;13.352;2023-05-25T10:19:40;102128.78;;;23.32;34.12
31044;BME280;17710;52.520;13.352;2023-05-25T10:22:14;102141.66;;;22.88;34.50
31044;BME280;17710;52.520;13.352;2023-05-25T10:24:51;102137.72;;;23.47;33.69
31044;BME280;17710;52.520;13.352;2023-05-25T10:27:23;102140.56;;;23.71;33.50
31044;BME280;17710;52.520;13.352;2023-05-25T10:29:51;102143.22;;;24.36;32.63
31044;BME280;17710;52.520;13.352;2023-05-25T10:32:17;102139.06;;;24.81;32.17
31044;BME280;17710;52.520;13.352;2023-05-25T10:34:45;102141.41;;;24.98;32.01
31044;BME280;17710;52.520;13.352;2023-05-25T10:37:13;102141.63;;;24.82;31.06
31044;BME280;17710;52.520;13.352;2023-05-25T10:39:42;102137.88;;;24.72;31.20
31044;BME280;17710;52.520;13.352;2023-05-25T10:42:11;102141.38;;;24.49;31.12
31044;BME280;17710;52.520;13.352;2023-05-25T10:44:39;102139.47;;;24.87;31.45
31044;BME280;17710;52.520;13.352;2023-05-25T10:47:06;102145.16;;;24.59;31.74
31044;BME280;17710;52.520;13.352;2023-05-25T10:49:34;102138.91;;;24.08;32.59
31044;BME280;17710;52.520;13.352;2023-05-25T10:52:17;102137.81;;;24.23;33.29
31044;BME280;17710;52.520;13.352;2023-05-25T10:54:43;102135.44;;;24.18;33.08
31044;BME280;17710;52.520;13.352;2023-05-25T10:57:18;102138.31;;;23.77;33.70
31044;BME280;17710;52.520;13.352;2023-05-25T10:59:48;102129.91;;;23.82;33.48
31044;BME280;17710;52.520;13.352;2023-05-25T11:02:16;102134.13;;;23.86;33.54
31044;BME280;17710;52.520;13.352;2023-05-25T11:04:46;102126.91;;;23.99;32.96
31044;BME280;17710;52.520;13.352;2023-05-25T11:07:14;102130.69;;;24.47;32.24
31044;BME280;17710;52.520;13.352;2023-05-25T11:09:42;102130.81;;;24.33;32.21
31044;BME280;17710;52.520;13.352;2023-05-25T11:12:20;102128.13;;;24.20;32.75
31044;BME280;17710;52.520;13.352;2023-05-25T11:15:09;102133.72;;;24.30;32.37
31044;BME280;17710;52.520;13.352;2023-05-25T11:20:28;102132.63;;;24.45;32.19
31044;BME280;17710;52.520;13.352;2023-05-25T11:22:58;102134.81;;;24.40;32.30
31044;BME280;17710;52.520;13.352;2023-05-25T11:25:38;102135.84;;;24.63;31.62
31044;BME280;17710;52.520;13.352;2023-05-25T11:28:07;102138.19;;;24.80;31.34
31044;BME280;17710;52.520;13.352;2023-05-25T11:30:37;102143.22;;;24.97;30.91
31044;BME280;17710;52.520;13.352;2023-05-25T11:33:03;102144.97;;;24.86;31.07
31044;BME280;17710;52.520;13.352;2023-05-25T11:35:32;102144.84;;;25.24;30.65
31044;BME280;17710;52.520;13.352;2023-05-25T11:38:03;102138.47;;;25.25;30.79
31044;BME280;17710;52.520;13.352;2023-05-25T11:40:30;102136.63;;;25.25;30.73
31044;BME280;17710;52.520;13.352;2023-05-25T11:42:58;102134.47;;;24.81;31.21
31044;BME280;17710;52.520;13.352;2023-05-25T11:45:28;102136.16;;;25.08;31.06
31044;BME280;17710;52.520;13.352;2023-05-25T11:47:56;102129.13;;;24.56;31.78
31044;BME280;17710;52.520;13.352;2023-05-25T11:50:23;102132.56;;;25.20;30.99
31044;BME280;17710;52.520;13.352;2023-05-25T11:52:49;102128.72;;;25.70;29.92
31044;BME280;17710;52.520;13.352;2023-05-25T11:55:16;102127.91;;;25.92;30.47
31044;BME280;17710;52.520;13.352;2023-05-25T11:57:43;102133.50;;;26.24;30.13
31044;BME280;17710;52.520;13.352;2023-05-25T12:00:10;102121.97;;;25.87;30.09
31044;BME280;17710;52.520;13.352;2023-05-25T12:02:39;102119.13;;;25.77;30.85
31044;BME280;17710;52.520;13.352;2023-05-25T12:05:07;102125.81;;;25.25;31.74
31044;BME280;17710;52.520;13.352;2023-05-25T12:07:41;102122.16;;;25.37;31.80
31044;BME280;17710;52.520;13.352;2023-05-25T12:10:09;102116.31;;;25.78;31.77
31044;BME280;17710;52.520;13.352;2023-05-25T12:12:38;102118.09;;;25.32;32.93
31044;BME280;17710;52.520;13.352;2023-05-25T12:15:06;102132.53;;;25.44;32.47
31044;BME280;17710;52.520;13.352;2023-05-25T12:17:35;102128.13;;;25.19;33.63
31044;BME280;17710;52.520;13.352;2023-05-25T12:20:03;102127.81;;;24.74;34.62
31044;BME280;17710;52.520;13.352;2023-05-25T12:22:31;102137.22;;;24.69;34.23
31044;BME280;17710;52.520;13.352;2023-05-25T12:24:58;102136.06;;;24.60;34.56
31044;BME280;17710;52.520;13.352;2023-05-25T12:27:25;102129.75;;;25.09;34.07
31044;BME280;17710;52.520;13.352;2023-05-25T12:29:51;102122.38;;;25.34;33.45
31044;BME280;17710;52.520;13.352;2023-05-25T12:32:18;102127.72;;;25.60;33.16
31044;BME280;17710;52.520;13.352;2023-05-25T12:34:44;102126.69;;;25.96;32.72
31044;BME280;17710;52.520;13.352;2023-05-25T12:37:19;102119.00;;;25.44;32.87
31044;BME280;17710;52.520;13.352;2023-05-25T12:39:46;102124.78;;;25.39;33.05
31044;BME280;17710;52.520;13.352;2023-05-25T12:42:14;102117.63;;;25.38;33.21
31044;BME280;17710;52.520;13.352;2023-05-25T12:44:41;102125.63;;;25.39;32.89
31044;BME280;17710;52.520;13.352;2023-05-25T12:47:10;102121.66;;;25.09;32.66
31044;BME280;17710;52.520;13.352;2023-05-25T12:49:37;102120.50;;;25.24;33.16